Time;durP1;ratioP1;P1;durP2;ratioP2;P2;SDS_P1;SDS_P2;PMS_P1;PMS_P2;Temp;Humidity;BMP_temperature;BMP_pressure;BME280_temperature;BME280_humidity;BME280_pressure;Samples;Min_cycle;Max_cycle;Signal;HPM_P1;HPM_P2
2022/10/24 00:01:48;;;;;;;125.22;70.65;;;;;;;20.95;69.12;98774.69;4932219;29;20118;-70
2022/10/24 00:04:45;;;;;;;126.32;72.95;;;;;;;20.97;68.90;98780.69;4951326;28;20055;-69
2022/10/24 00:07:21;;;;;;;125.80;73.53;;;;;;;20.82;69.16;98779.63;4948802;28;20633;-69
2022/10/24 00:10:19;;;;;;;137.48;76.18;;;;;;;20.87;69.07;98781.56;4943646;28;20138;-69
2022/10/24 00:12:55;;;;;;;134.88;76.00;;;;;;;20.85;68.95;98779.09;4949324;28;20063;-69
2022/10/24 00:15:54;;;;;;;139.45;76.00;;;;;;;20.84;68.78;98779.38;4949263;28;20133;-68
2022/10/24 00:18:30;;;;;;;135.00;74.32;;;;;;;20.78;68.93;98772.31;4955180;29;20070;-69
2022/10/24 00:21:26;;;;;;;132.60;73.63;;;;;;;20.88;68.80;98781.28;4933931;28;20067;-68
2022/10/24 00:24:02;;;;;;;137.93;77.35;;;;;;;20.92;68.33;98785.06;4948715;29;20055;-69
2022/10/24 00:26:59;;;;;;;126.90;74.97;;;;;;;20.96;68.43;98787.22;4948726;28;20114;-68
2022/10/24 00:29:34;;;;;;;143.52;77.75;;;;;;;20.89;68.78;98784.81;4948364;28;20051;-68
2022/10/24 00:32:23;;;;;;;140.23;78.30;;;;;;;20.86;68.86;98788.09;4946894;28;20059;-68
2022/10/24 00:35:12;;;;;;;140.40;77.88;;;;;;;20.76;69.14;98786.22;4950404;28;20055;-68
2022/10/24 00:38:01;;;;;;;139.65;74.63;;;;;;;20.79;69.41;98784.84;4948589;28;20671;-69
2022/10/24 00:40:43;;;;;;;132.90;74.72;;;;;;;20.67;69.32;98783.28;4931789;28;20523;-68
2022/10/24 00:43:33;;;;;;;139.80;75.53;;;;;;;20.66;69.86;98789.81;4947159;28;20058;-68
2022/10/24 00:46:24;;;;;;;126.10;75.55;;;;;;;20.64;69.80;98792.00;4945328;29;20059;-68
2022/10/24 00:49:13;;;;;;;133.00;77.88;;;;;;;20.75;69.77;98789.22;4948265;28;20043;-68
2022/10/24 00:52:08;;;;;;;141.27;76.93;;;;;;;20.66;69.70;98799.91;4930454;29;20094;-68
2022/10/24 00:54:52;;;;;;;144.25;79.65;;;;;;;20.64;69.33;98791.19;4946237;28;20059;-68
2022/10/24 00:58:00;;;;;;;128.90;75.50;;;;;;;20.69;69.43;98791.16;4945469;28;20130;-68
2022/10/24 01:00:55;;;;;;;132.23;79.88;;;;;;;20.69;69.75;98789.25;4944945;29;20491;-68
2022/10/24 01:03:44;;;;;;;132.40;76.55;;;;;;;20.80;69.51;98803.66;4945404;29;20056;-68
2022/10/24 01:06:42;;;;;;;137.98;77.05;;;;;;;20.69;69.99;98805.63;4945822;28;20051;-68
2022/10/24 01:09:46;;;;;;;137.02;75.70;;;;;;;20.67;70.00;98807.81;4946534;28;20063;-68
2022/10/24 01:12:37;;;;;;;144.45;80.65;;;;;;;20.57;70.39;98804.25;4927531;29;20463;-67
2022/10/24 01:15:40;;;;;;;132.10;76.78;;;;;;;20.67;69.71;98809.69;4927388;29;20122;-68
2022/10/24 01:18:40;;;;;;;136.90;78.67;;;;;;;20.60;70.21;98814.63;4944947;29;20159;-68
2022/10/24 01:21:34;;;;;;;131.18;76.70;;;;;;;20.65;69.71;98811.91;4934629;29;20055;-68
2022/10/24 01:24:43;;;;;;;141.50;76.32;;;;;;;20.80;69.25;98822.75;4942827;28;20105;-68
2022/10/24 01:28:07;;;;;;;143.88;78.95;;;;;;;20.81;69.44;98818.09;4927791;28;20054;-68
2022/10/24 01:30:58;;;;;;;145.88;80.43;;;;;;;20.82;69.19;98833.38;4928696;29;20115;-68
2022/10/24 01:33:56;;;;;;;149.13;79.03;;;;;;;20.74;70.27;98829.31;4944870;28;20513;-69
2022/10/24 01:36:53;;;;;;;152.10;82.80;;;;;;;20.81;69.76;98829.84;4930391;29;20639;-69
2022/10/24 01:39:43;;;;;;;137.20;78.50;;;;;;;20.83;69.78;98830.38;4947269;28;20482;-69
2022/10/24 01:42:36;;;;;;;138.75;76.43;;;;;;;20.80;69.91;98839.13;4934146;28;20061;-69
2022/10/24 01:45:25;;;;;;;144.10;79.60;;;;;;;20.87;69.72;98845.09;4950561;28;20061;-69
2022/10/24 01:48:18;;;;;;;152.63;81.20;;;;;;;20.97;70.03;98840.69;4940209;28;20130;-68
2022/10/24 01:51:02;;;;;;;139.35;76.78;;;;;;;21.07;69.70;98835.19;4947387;28;20043;-68
2022/10/24 01:53:51;;;;;;;136.43;78.43;;;;;;;21.10;69.57;98834.63;4946202;28;20055;-68
2022/10/24 01:56:40;;;;;;;144.75;79.43;;;;;;;21.03;69.57;98840.38;4953323;28;20105;-68
2022/10/24 01:59:32;;;;;;;143.73;78.07;;;;;;;21.12;69.54;98837.91;4951575;28;20153;-68
2022/10/24 02:02:30;;;;;;;149.52;80.65;;;;;;;21.17;69.56;98846.06;4946618;28;20380;-68
2022/10/24 02:05:30;;;;;;;138.95;77.82;;;;;;;21.33;68.79;98844.06;4944469;28;20067;-68
2022/10/24 02:08:30;;;;;;;139.35;77.00;;;;;;;21.34;68.77;98844.88;4948423;28;20066;-68
2022/10/24 02:11:15;;;;;;;141.20;78.73;;;;;;;21.44;69.02;98850.34;4942797;28;20067;-69
2022/10/24 02:14:20;;;;;;;143.05;78.03;;;;;;;21.56;68.25;98852.72;4951720;28;20308;-68
2022/10/24 02:17:10;;;;;;;147.95;77.10;;;;;;;21.58;68.38;98855.97;4950410;28;20163;-69
2022/10/24 02:19:52;;;;;;;149.13;78.22;;;;;;;21.82;67.81;98858.78;4952418;28;20043;-68
2022/10/24 02:22:51;;;;;;;144.93;78.50;;;;;;;21.96;67.61;98859.78;4947949;28;20070;-68
2022/10/24 02:25:36;;;;;;;140.80;74.30;;;;;;;22.13;67.97;98872.25;4947836;28;20057;-68
2022/10/24 02:28:35;;;;;;;137.38;76.55;;;;;;;22.20;67.42;98873.56;4932196;29;20102;-69
2022/10/24 02:31:36;;;;;;;137.82;78.80;;;;;;;22.41;67.03;98866.00;4929791;29;20048;-69
2022/10/24 02:34:13;;;;;;;150.15;77.78;;;;;;;22.59;67.11;98872.66;4947245;28;20059;-69
2022/10/24 02:37:05;;;;;;;162.75;80.82;;;;;;;22.71;67.47;98872.25;4941512;29;20142;-69
2022/10/24 02:39:52;;;;;;;138.85;76.93;;;;;;;22.76;67.37;98879.59;4928723;28;20066;-68
2022/10/24 02:42:42;;;;;;;154.47;79.00;;;;;;;22.89;67.25;98878.91;4931668;28;20055;-69
2022/10/24 02:45:32;;;;;;;151.65;80.65;;;;;;;22.96;65.61;98881.28;4946115;28;20051;-69
2022/10/24 02:48:18;;;;;;;147.45;81.38;;;;;;;23.04;65.77;98880.66;4941144;29;20043;-70
2022/10/24 02:51:08;;;;;;;151.32;83.90;;;;;;;23.09;65.54;98888.81;4927419;29;20788;-68
2022/10/24 02:53:51;;;;;;;152.18;84.28;;;;;;;23.30;64.13;98894.06;4947118;28;20109;-68
2022/10/24 02:56:40;;;;;;;160.25;86.28;;;;;;;23.40;64.47;98904.88;4946506;28;20114;-69
2022/10/24 02:59:22;;;;;;;142.55;81.82;;;;;;;23.48;64.95;98890.50;4947399;29;20110;-68
2022/10/24 03:02:11;;;;;;;146.70;83.43;;;;;;;23.61;63.61;98886.22;4947079;29;20078;-68
2022/10/24 03:04:53;;;;;;;148.65;82.18;;;;;;;23.78;62.02;98893.94;4949176;28;20134;-69
2022/10/24 03:07:42;;;;;;;137.68;76.30;;;;;;;23.93;61.63;98890.19;4946606;28;20062;-69
2022/10/24 03:10:37;;;;;;;126.63;70.35;;;;;;;24.15;60.15;98892.28;4926947;29;20055;-69
2022/10/24 03:13:32;;;;;;;120.45;67.82;;;;;;;24.28;57.89;98896.19;4947496;29;20047;-68
2022/10/24 03:16:08;;;;;;;114.60;61.97;;;;;;;24.36;58.62;98895.50;4953980;28;20054;-70
2022/10/24 03:19:03;;;;;;;103.32;58.00;;;;;;;24.52;56.96;98893.34;4943589;28;20047;-68
2022/10/24 03:21:40;;;;;;;104.82;57.92;;;;;;;24.61;56.80;98895.09;4929064;29;20095;-69
2022/10/24 03:24:35;;;;;;;102.00;53.97;;;;;;;24.76;55.51;98896.75;4927694;29;20043;-70
2022/10/24 03:27:29;;;;;;;266.08;69.32;;;;;;;24.95;54.35;98898.56;4948455;29;20058;-69
2022/10/24 03:30:24;;;;;;;111.97;58.45;;;;;;;25.00;55.18;98902.03;4947917;28;20044;-69
2022/10/24 03:33:00;;;;;;;96.80;54.22;;;;;;;25.18;52.93;98899.47;4948010;29;20054;-68
2022/10/24 03:35:59;;;;;;;99.47;56.70;;;;;;;25.35;54.03;98901.63;4946768;29;20403;-69
2022/10/24 03:38:35;;;;;;;91.43;53.65;;;;;;;25.65;51.92;98893.88;4947940;28;20059;-69
2022/10/24 03:41:30;;;;;;;113.22;58.83;;;;;;;25.68;50.79;98901.47;4932122;28;20055;-69
2022/10/24 03:44:06;;;;;;;104.32;57.13;;;;;;;25.68;53.39;98895.97;4948079;29;20051;-69
2022/10/24 03:46:55;;;;;;;95.95;57.22;;;;;;;25.85;52.62;98896.13;4947651;28;20435;-69
2022/10/24 03:49:36;;;;;;;93.78;55.88;;;;;;;26.05;51.56;98892.13;4931773;29;20376;-69
2022/10/24 03:52:25;;;;;;;90.18;50.80;;;;;;;26.32;49.29;98899.41;4944390;28;20043;-69
2022/10/24 03:55:07;;;;;;;103.75;51.55;;;;;;;26.62;48.64;98897.03;4930870;29;20061;-69
2022/10/24 03:57:56;;;;;;;87.55;46.58;;;;;;;26.98;47.35;98901.59;4947132;29;20101;-69
2022/10/24 04:00:39;;;;;;;73.95;45.83;;;;;;;27.19;48.09;98904.56;4947407;29;20051;-68
2022/10/24 04:03:28;;;;;;;83.65;45.20;;;;;;;27.57;48.20;98900.47;4944981;28;20051;-68
2022/10/24 04:06:18;;;;;;;88.63;44.13;;;;;;;27.71;46.32;98901.94;4946979;28;20036;-69
2022/10/24 04:09:07;;;;;;;72.78;41.33;;;;;;;28.09;43.99;98898.56;4947820;28;20067;-69
2022/10/24 04:11:57;;;;;;;74.70;40.35;;;;;;;28.43;45.49;98905.19;4944898;29;20051;-69
2022/10/24 04:14:38;;;;;;;80.25;39.35;;;;;;;28.65;43.17;98906.91;4941476;29;20062;-69
2022/10/24 04:17:28;;;;;;;68.95;38.90;;;;;;;28.93;41.72;98908.44;4953768;28;20051;-69
2022/10/24 04:20:21;;;;;;;78.47;39.55;;;;;;;29.29;42.59;98910.75;4944380;28;20106;-69
2022/10/24 04:23:10;;;;;;;79.80;40.15;;;;;;;29.42;43.46;98906.91;4945468;29;20041;-69
2022/10/24 04:26:05;;;;;;;70.75;39.33;;;;;;;29.70;42.88;98906.41;4945281;29;20058;-69
2022/10/24 04:28:41;;;;;;;71.55;39.65;;;;;;;30.13;42.31;98908.03;4946546;29;20122;-70
2022/10/24 04:31:30;;;;;;;74.18;37.95;;;;;;;30.30;42.32;98909.84;4930740;29;20122;-69
2022/10/24 04:34:12;;;;;;;73.20;36.67;;;;;;;30.37;39.46;98901.03;4946737;29;20055;-69
2022/10/24 04:37:02;;;;;;;67.68;37.42;;;;;;;30.58;41.28;98910.06;4929026;29;20566;-69
2022/10/24 04:39:53;;;;;;;76.28;38.30;;;;;;;30.11;40.40;98909.53;4944550;28;20047;-69
2022/10/24 04:42:48;;;;;;;71.45;33.58;;;;;;;30.90;37.84;98902.09;4945869;29;20058;-69
2022/10/24 04:45:24;;;;;;;69.30;33.00;;;;;;;30.67;40.17;98896.13;4947143;28;20109;-69
2022/10/24 04:48:15;;;;;;;61.30;34.88;;;;;;;30.87;39.57;98905.50;4927327;29;20055;-69
2022/10/24 04:51:04;;;;;;;59.72;34.55;;;;;;;31.27;40.17;98904.84;4946101;29;20134;-69
2022/10/24 04:53:45;;;;;;;66.78;35.35;;;;;;;31.23;39.88;98901.97;4931300;29;20137;-69
2022/10/24 04:56:34;;;;;;;75.70;36.10;;;;;;;31.51;40.50;98903.22;4948137;29;20059;-69
2022/10/24 04:59:16;;;;;;;67.68;33.45;;;;;;;31.73;38.08;98882.50;4945813;28;20491;-71
2022/10/24 05:02:05;;;;;;;68.15;36.08;;;;;;;31.63;36.77;98891.31;4944789;28;20039;-70
2022/10/24 05:04:54;;;;;;;65.80;33.28;;;;;;;31.97;36.92;98889.94;4929616;29;20138;-70
2022/10/24 05:07:36;;;;;;;59.42;34.33;;;;;;;31.62;36.72;98890.50;4943960;28;20055;-69
2022/10/24 05:10:25;;;;;;;56.80;33.03;;;;;;;31.35;37.45;98890.03;4940079;28;20075;-70
2022/10/24 05:13:15;;;;;;;57.88;33.40;;;;;;;31.38;36.15;98883.81;4943244;29;20122;-71
2022/10/24 05:15:57;;;;;;;67.50;33.03;;;;;;;31.80;38.87;98877.16;4938042;28;20062;-68
2022/10/24 05:19:00;;;;;;;74.82;34.33;;;;;;;31.81;39.49;98873.22;4932583;29;20043;-70
2022/10/24 05:21:48;;;;;;;63.53;34.72;;;;;;;31.78;35.10;98868.38;4944672;28;20046;-71
2022/10/24 05:24:37;;;;;;;71.65;33.00;;;;;;;32.26;38.45;98868.56;4944175;29;20047;-71
2022/10/24 05:27:23;;;;;;;62.95;30.50;;;;;;;32.08;36.04;98866.09;4928804;29;20109;-71
2022/10/24 05:30:12;;;;;;;59.65;30.48;;;;;;;32.36;34.33;98854.16;4930045;29;20470;-70
2022/10/24 05:32:55;;;;;;;66.20;32.38;;;;;;;32.02;34.01;98850.03;4944131;28;20081;-70
2022/10/24 05:35:45;;;;;;;64.85;34.45;;;;;;;32.01;36.01;98852.00;4940458;28;20157;-72
2022/10/24 05:38:33;;;;;;;77.15;32.72;;;;;;;32.49;35.64;98847.34;4943103;29;20050;-70
2022/10/24 05:41:29;;;;;;;70.85;35.17;;;;;;;32.10;34.60;98847.13;4921471;29;20150;-72
2022/10/24 05:44:18;;;;;;;70.15;36.85;;;;;;;31.67;35.40;98840.31;4932539;28;20043;-72
2022/10/24 05:47:00;;;;;;;80.10;40.33;;;;;;;31.68;34.76;98841.13;4940423;28;20142;-71
2022/10/24 05:49:49;;;;;;;76.60;40.08;;;;;;;32.24;34.74;98826.47;4928403;29;20523;-71
2022/10/24 05:52:32;;;;;;;94.97;40.72;;;;;;;31.99;36.73;98832.09;4943492;29;20319;-70
2022/10/24 05:55:34;;;;;;;67.65;35.33;;;;;;;32.28;33.25;98833.72;4943044;28;20098;-69
2022/10/24 05:58:09;;;;;;;69.00;33.83;;;;;;;31.80;34.50;98828.00;4946230;28;20047;-70
2022/10/24 06:01:05;;;;;;;69.10;34.58;;;;;;;31.98;34.96;98830.47;4930156;29;20142;-70
2022/10/24 06:03:41;;;;;;;66.50;29.92;;;;;;;31.94;35.55;98837.91;4944649;29;20051;-72
2022/10/24 06:06:36;;;;;;;67.63;33.17;;;;;;;31.86;34.60;98819.44;4929576;28;20047;-70
2022/10/24 06:09:13;;;;;;;66.57;32.92;;;;;;;31.80;35.72;98814.13;4945179;28;20480;-73
2022/10/24 06:12:08;;;;;;;64.65;32.03;;;;;;;31.82;36.82;98813.00;4926807;29;20052;-72
2022/10/24 06:14:44;;;;;;;69.97;37.53;;;;;;;32.10;34.16;98807.44;4937433;28;20478;-73
2022/10/24 06:17:39;;;;;;;75.93;38.55;;;;;;;31.93;35.04;98802.97;4939426;29;20851;-73
2022/10/24 06:20:15;;;;;;;70.10;31.90;;;;;;;31.69;34.56;98796.38;4938277;29;20079;-74
2022/10/24 06:23:03;;;;;;;54.60;29.80;;;;;;;31.76;34.69;98793.81;4936036;29;20043;-70
2022/10/24 06:25:52;;;;;;;61.35;33.05;;;;;;;31.72;36.91;98781.81;4920390;29;20090;-72
2022/10/24 06:28:34;;;;;;;80.53;34.38;;;;;;;32.11;37.30;98787.63;4940179;29;20472;-72
2022/10/24 06:31:25;;;;;;;63.25;32.20;;;;;;;32.28;36.85;98782.94;4939635;29;20206;-71
2022/10/24 06:34:07;;;;;;;67.18;33.45;;;;;;;31.82;33.96;98783.25;4928449;29;20047;-72
2022/10/24 06:36:56;;;;;;;64.55;30.17;;;;;;;31.89;34.84;98774.31;4943508;29;20555;-71
2022/10/24 06:39:44;;;;;;;67.82;31.95;;;;;;;32.16;34.35;98767.94;4943857;28;20066;-71
2022/10/24 06:42:33;;;;;;;65.50;31.55;;;;;;;32.00;34.19;98764.31;4941302;29;20122;-70
2022/10/24 06:45:19;;;;;;;66.47;31.90;;;;;;;31.96;33.94;98753.09;4944281;28;20616;-71
2022/10/24 06:48:15;;;;;;;62.95;30.60;;;;;;;32.16;36.01;98747.72;4933020;28;20058;-73
2022/10/24 06:50:51;;;;;;;69.45;31.27;;;;;;;32.24;33.82;98741.16;4909292;29;20055;-70
2022/10/24 06:53:46;;;;;;;70.07;32.15;;;;;;;31.91;34.78;98731.19;4920019;29;20078;-69
2022/10/24 06:56:22;;;;;;;62.83;28.70;;;;;;;32.17;35.65;98725.13;4929404;28;20067;-69
2022/10/24 06:59:14;;;;;;;56.05;26.08;;;;;;;32.32;34.04;98717.16;4941845;28;20074;-69
2022/10/24 07:01:57;;;;;;;69.95;28.25;;;;;;;32.33;34.52;98715.97;4945421;28;20051;-72
2022/10/24 07:04:46;;;;;;;61.92;32.03;;;;;;;31.87;35.08;98710.03;4942471;28;20047;-69
2022/10/24 07:07:35;;;;;;;84.07;31.33;;;;;;;32.36;33.65;98709.72;4941738;29;20062;-70
2022/10/24 07:10:18;;;;;;;68.70;30.17;;;;;;;32.18;34.25;98701.75;4944223;28;20043;-70
2022/10/24 07:13:06;;;;;;;49.35;25.83;;;;;;;32.37;33.79;98703.00;4935513;29;20378;-73
2022/10/24 07:15:53;;;;;;;45.63;19.45;;;;;;;31.83;32.57;98692.50;4940363;28;20047;-70
2022/10/24 07:18:41;;;;;;;36.17;18.13;;;;;;;32.01;34.42;98685.44;4943337;28;20070;-69
2022/10/24 07:21:27;;;;;;;60.35;21.52;;;;;;;32.30;33.39;98683.38;4940945;28;20059;-70
2022/10/24 07:24:20;;;;;;;69.20;21.38;;;;;;;32.43;36.32;98681.28;4940815;29;20057;-70
2022/10/24 07:27:02;;;;;;;59.38;22.92;;;;;;;32.28;32.44;98674.63;4947306;28;20039;-74
2022/10/24 07:29:50;;;;;;;69.20;24.58;;;;;;;31.97;32.74;98665.91;4946680;28;20063;-71
2022/10/24 07:32:39;;;;;;;38.25;19.35;;;;;;;32.02;32.35;98656.53;4931699;29;20365;-71
2022/10/24 07:35:33;;;;;;;45.50;22.35;;;;;;;32.25;33.40;98658.66;4942659;28;21960;-70
2022/10/24 07:38:23;;;;;;;45.33;21.73;;;;;;;32.19;32.95;98650.59;4926252;28;20055;-70
2022/10/24 07:41:12;;;;;;;34.60;19.02;;;;;;;32.23;31.99;98641.56;4926821;29;20139;-70
2022/10/24 07:43:57;;;;;;;38.25;19.30;;;;;;;32.15;32.10;98638.59;4943033;29;20055;-71
2022/10/24 07:46:47;;;;;;;42.95;18.02;;;;;;;32.24;31.38;98620.97;4947493;29;20565;-70
2022/10/24 07:49:29;;;;;;;34.63;16.63;;;;;;;32.29;32.17;98627.06;4942274;29;20039;-69
2022/10/24 07:52:18;;;;;;;30.92;15.98;;;;;;;32.33;32.84;98616.00;4942709;28;20118;-70
2022/10/24 07:55:08;;;;;;;35.08;15.50;;;;;;;32.36;32.19;98612.50;4946536;29;20047;-71
2022/10/24 07:57:50;;;;;;;36.97;15.10;;;;;;;31.75;33.44;98611.03;4946143;29;20546;-73
2022/10/24 08:00:39;;;;;;;36.33;17.70;;;;;;;32.08;32.52;98607.09;4943983;28;20083;-73
2022/10/24 08:03:28;;;;;;;36.35;17.73;;;;;;;32.06;32.02;98603.88;4950600;28;20106;-72
2022/10/24 08:06:21;;;;;;;38.20;17.83;;;;;;;31.88;32.51;98589.53;4945997;28;20495;-72
2022/10/24 08:09:09;;;;;;;32.42;17.30;;;;;;;31.93;33.18;98589.25;4932045;29;20130;-72
2022/10/24 08:11:51;;;;;;;35.13;18.13;;;;;;;32.11;32.74;98582.19;4941776;29;21096;-72
2022/10/24 08:14:42;;;;;;;39.22;20.40;;;;;;;31.73;32.80;98578.09;4942084;29;20055;-72
2022/10/24 08:17:32;;;;;;;42.33;21.10;;;;;;;31.74;32.91;98579.72;4947372;29;20051;-73
2022/10/24 08:20:23;;;;;;;40.15;21.15;;;;;;;31.37;34.11;98570.78;4946058;28;20062;-73
2022/10/24 08:23:11;;;;;;;38.22;21.63;;;;;;;31.54;33.61;98564.13;4944499;29;20353;-72
2022/10/24 08:25:53;;;;;;;49.72;23.73;;;;;;;31.61;35.02;98558.75;4948270;29;20154;-72
2022/10/24 08:28:50;;;;;;;52.88;22.42;;;;;;;31.77;34.29;98545.69;4949594;29;20051;-73
2022/10/24 08:31:26;;;;;;;38.65;20.27;;;;;;;31.82;33.97;98550.16;4953162;29;20047;-72
2022/10/24 08:34:16;;;;;;;40.45;21.33;;;;;;;31.96;35.53;98544.13;4949023;28;20419;-73
2022/10/24 08:37:05;;;;;;;42.72;23.55;;;;;;;31.82;34.87;98538.25;4944947;29;20530;-72
2022/10/24 08:39:47;;;;;;;47.05;24.10;;;;;;;31.71;35.44;98530.47;4945541;29;20762;-72
2022/10/24 08:42:36;;;;;;;53.42;26.02;;;;;;;31.82;36.12;98529.94;4910802;29;20357;-72
2022/10/24 08:45:28;;;;;;;48.70;23.70;;;;;;;31.54;34.96;98526.09;4927646;29;20077;-73
2022/10/24 08:48:26;;;;;;;40.65;18.67;;;;;;;31.31;34.87;98523.13;4927479;29;20119;-73
2022/10/24 08:51:22;;;;;;;44.00;16.23;;;;;;;31.82;32.67;98513.28;4928741;29;20058;-73
2022/10/24 08:54:16;;;;;;;29.13;14.77;;;;;;;31.48;30.74;98510.09;4912553;29;20050;-72
2022/10/24 08:57:00;;;;;;;29.38;15.13;;;;;;;31.61;31.39;98497.75;4924281;29;20068;-72
2022/10/24 08:59:49;;;;;;;31.17;16.25;;;;;;;31.60;31.59;98496.94;4925298;29;20043;-72
2022/10/24 09:02:36;;;;;;;44.95;17.50;;;;;;;31.70;32.37;98495.59;4920767;29;20371;-73
2022/10/24 09:05:33;;;;;;;27.95;14.80;;;;;;;31.78;30.90;98479.91;4923370;29;20052;-73
2022/10/24 09:09:03;;;;;;;31.65;15.93;;;;;;;31.87;31.35;98482.47;4922525;29;20115;-73
2022/10/24 09:12:29;;;;;;;26.58;14.07;;;;;;;31.69;33.06;98474.53;4848155;29;20329;-73
2022/10/24 09:15:23;;;;;;;30.25;13.82;;;;;;;31.71;31.68;98463.88;4911087;29;20048;-72
2022/10/24 09:18:40;;;;;;;28.92;14.10;;;;;;;31.41;32.68;98472.69;4906721;29;20052;-73
2022/10/24 09:21:22;;;;;;;29.92;14.13;;;;;;;31.73;32.45;98456.00;4923937;29;20719;-72
2022/10/24 09:24:12;;;;;;;36.28;15.30;;;;;;;31.66;31.64;98468.91;4919317;29;20055;-72
2022/10/24 09:26:55;;;;;;;35.40;16.05;;;;;;;31.61;31.76;98458.91;4930606;29;20059;-73
2022/10/24 09:29:43;;;;;;;32.67;16.15;;;;;;;31.53;32.78;98462.69;4928805;29;20119;-73
2022/10/24 09:32:35;;;;;;;32.05;14.18;;;;;;;31.64;32.31;98458.16;4921018;29;20329;-73
2022/10/24 09:35:28;;;;;;;37.25;13.40;;;;;;;31.33;31.29;98453.44;4919190;29;20063;-72
2022/10/24 09:38:30;;;;;;;25.00;13.38;;;;;;;31.47;31.42;98447.47;4921764;29;20067;-72
2022/10/24 09:41:33;;;;;;;24.35;13.95;;;;;;;31.33;32.02;98445.13;4934518;28;20039;-73
2022/10/24 09:44:45;;;;;;;23.08;13.82;;;;;;;31.65;31.69;98440.38;4927149;28;20047;-72
2022/10/24 09:47:38;;;;;;;22.75;13.90;;;;;;;31.57;32.90;98439.41;4922829;29;20063;-73
2022/10/24 09:50:28;;;;;;;30.88;15.07;;;;;;;31.56;31.54;98435.00;4942508;29;20062;-73
2022/10/24 09:53:34;;;;;;;39.75;15.00;;;;;;;31.52;32.07;98439.66;4942776;28;20051;-73
2022/10/24 09:56:13;;;;;;;29.23;15.23;;;;;;;31.41;32.35;98436.63;4942007;28;20133;-74
2022/10/24 09:59:36;;;;;;;30.20;16.00;;;;;;;31.59;33.20;98427.94;4942882;29;20047;-72
2022/10/24 10:02:25;;;;;;;39.88;16.13;;;;;;;31.13;33.67;98416.53;4932461;28;20486;-71
2022/10/24 10:05:19;;;;;;;37.42;16.02;;;;;;;31.06;33.30;98413.56;4939354;29;20498;-71
2022/10/24 10:08:02;;;;;;;45.08;17.83;;;;;;;31.22;32.76;98409.63;4940951;28;20051;-71
2022/10/24 10:11:06;;;;;;;33.88;17.48;;;;;;;31.19;33.74;98407.56;4936568;29;20407;-71
2022/10/24 10:13:49;;;;;;;26.38;16.15;;;;;;;31.16;35.06;98410.25;4944984;28;20071;-71
2022/10/24 10:16:38;;;;;;;32.22;17.85;;;;;;;31.02;35.97;98405.97;4937795;29;20138;-73
2022/10/24 10:19:27;;;;;;;60.55;17.33;;;;;;;31.01;35.36;98406.31;4924529;29;21024;-72
2022/10/24 10:22:31;;;;;;;58.35;16.50;;;;;;;31.01;33.50;98398.81;4940933;28;20051;-72
2022/10/24 10:25:37;;;;;;;29.75;15.30;;;;;;;30.92;33.79;98398.19;4941418;28;20051;-72
2022/10/24 10:28:22;;;;;;;32.03;16.25;;;;;;;30.91;36.62;98398.53;4942954;28;20043;-71
2022/10/24 10:31:10;;;;;;;27.67;15.80;;;;;;;30.99;34.39;98392.00;4943741;29;20055;-72
2022/10/24 10:34:21;;;;;;;39.40;17.90;;;;;;;31.02;34.67;98392.09;4942067;28;20066;-71
2022/10/24 10:37:31;;;;;;;31.80;16.63;;;;;;;30.84;36.48;98393.63;4944984;28;20424;-72
2022/10/24 10:40:45;;;;;;;33.57;16.80;;;;;;;30.79;38.01;98391.09;4939093;29;20106;-74
2022/10/24 10:44:06;;;;;;;28.67;17.40;;;;;;;30.79;36.56;98391.09;4941428;28;20293;-75
2022/10/24 10:46:48;;;;;;;42.20;17.42;;;;;;;30.70;36.70;98384.91;4943153;28;20051;-74
2022/10/24 10:49:41;;;;;;;32.35;16.83;;;;;;;30.55;35.44;98384.53;4941975;28;20506;-72
2022/10/24 10:52:32;;;;;;;30.60;17.13;;;;;;;30.51;35.74;98389.19;4942377;28;20055;-73
2022/10/24 10:55:29;;;;;;;32.92;17.08;;;;;;;30.38;36.99;98390.41;4944100;28;20074;-73
2022/10/24 10:58:22;;;;;;;41.58;18.90;;;;;;;30.33;38.45;98393.44;4944376;28;20051;-72
2022/10/24 11:01:47;;;;;;;34.10;16.83;;;;;;;30.38;38.67;98394.00;4929054;29;20431;-73
2022/10/24 11:04:56;;;;;;;40.80;17.42;;;;;;;30.19;39.80;98389.09;4940848;28;20047;-71
2022/10/24 11:08:07;;;;;;;36.72;17.70;;;;;;;30.08;40.96;98390.75;4942526;28;20063;-72
2022/10/24 11:10:56;;;;;;;38.88;17.42;;;;;;;29.96;39.79;98394.38;4943877;28;20047;-70
2022/10/24 11:13:52;;;;;;;43.55;18.40;;;;;;;29.78;37.45;98393.81;4945082;29;20110;-71
2022/10/24 11:16:37;;;;;;;34.13;15.90;;;;;;;30.03;38.45;98389.00;4941572;28;20142;-71
2022/10/24 11:19:38;;;;;;;47.50;16.40;;;;;;;29.99;37.35;98382.56;4946495;29;20047;-71
2022/10/24 11:22:28;;;;;;;35.55;17.40;;;;;;;29.95;38.64;98386.41;4943453;29;20059;-70
2022/10/24 11:25:37;;;;;;;32.65;17.02;;;;;;;29.76;40.22;98390.59;4943848;28;20051;-71
2022/10/24 11:28:58;;;;;;;41.05;16.40;;;;;;;29.57;40.80;98391.19;4947238;28;20069;-70
2022/10/24 11:31:40;;;;;;;;;;;;;;;29.56;41.71;98386.00;4905848;29;20062;-71
2022/10/24 11:34:46;;;;;;;42.42;17.17;;;;;;;29.47;41.07;98388.91;4910692;29;19938;-71
2022/10/24 11:37:42;;;;;;;34.13;16.98;;;;;;;29.43;41.94;98388.00;4942040;28;20064;-71
2022/10/24 11:40:33;;;;;;;34.47;17.15;;;;;;;29.28;42.89;98386.72;4943533;28;20058;-70
2022/10/24 11:43:43;;;;;;;25.52;15.40;;;;;;;29.17;42.42;98391.91;4947803;28;20059;-70
2022/10/24 11:46:24;;;;;;;33.17;16.38;;;;;;;29.08;41.54;98394.75;4946223;28;20051;-70
2022/10/24 11:49:40;;;;;;;41.45;15.82;;;;;;;28.98;42.70;98392.44;4944758;28;20067;-71
2022/10/24 11:52:26;;;;;;;37.80;16.15;;;;;;;28.84;43.80;98398.31;4945872;28;20483;-70
2022/10/24 11:55:20;;;;;;;33.08;17.13;;;;;;;28.69;44.55;98399.75;4945403;28;20065;-70
2022/10/24 11:58:13;;;;;;;31.00;16.80;;;;;;;28.50;45.52;98397.50;4938661;29;20058;-70
2022/10/24 12:01:48;;;;;;;37.75;16.73;;;;;;;28.41;45.34;98409.78;4943578;28;20047;-70
2022/10/24 12:04:34;;;;;;;41.53;16.38;;;;;;;28.23;45.50;98411.91;4942682;28;20047;-70
2022/10/24 12:07:57;;;;;;;39.15;17.63;;;;;;;28.15;45.43;98410.84;4942673;28;20121;-70
2022/10/24 12:11:04;;;;;;;28.75;16.38;;;;;;;28.08;46.37;98416.09;4943523;28;20058;-71
2022/10/24 12:14:05;;;;;;;45.85;17.05;;;;;;;27.95;47.07;98406.13;4943796;28;20044;-71
2022/10/24 12:17:12;;;;;;;35.45;17.83;;;;;;;27.83;47.07;98412.38;4927210;29;20055;-71
2022/10/24 12:20:02;;;;;;;43.85;18.17;;;;;;;27.74;46.96;98417.94;4941660;29;20059;-70
2022/10/24 12:22:46;;;;;;;49.80;19.60;;;;;;;27.63;47.49;98413.94;4945150;29;20043;-70
2022/10/24 12:25:47;;;;;;;45.55;17.85;;;;;;;27.57;47.38;98412.53;4940613;28;20051;-70
2022/10/24 12:28:30;;;;;;;54.38;20.30;;;;;;;27.41;47.43;98413.13;4941750;29;20055;-73
2022/10/24 12:31:21;;;;;;;43.38;19.75;;;;;;;27.40;47.43;98410.69;4941458;29;20521;-74
2022/10/24 12:34:18;;;;;;;45.30;17.88;;;;;;;27.31;47.87;98408.00;4921722;29;20543;-74
2022/10/24 12:37:13;;;;;;;44.60;19.20;;;;;;;27.17;47.99;98416.44;4944187;29;20047;-76
2022/10/24 12:40:39;;;;;;;45.00;19.25;;;;;;;27.24;48.01;98418.69;4943489;28;20051;-75
2022/10/24 12:43:37;;;;;;;46.85;19.25;;;;;;;27.15;47.87;98427.81;4946712;29;20138;-70
2022/10/24 12:46:26;;;;;;;46.45;19.60;;;;;;;27.09;48.73;98422.78;4942986;29;20529;-74
2022/10/24 12:49:08;;;;;;;46.22;19.98;;;;;;;26.97;49.05;98415.25;4941446;29;20419;-68
2022/10/24 12:52:18;;;;;;;49.50;20.48;;;;;;;26.91;49.34;98422.06;4945907;28;20070;-71
2022/10/24 12:55:01;;;;;;;40.28;19.33;;;;;;;26.80;49.85;98420.81;4941210;28;20062;-71
2022/10/24 12:57:57;;;;;;;38.35;19.35;;;;;;;26.82;49.51;98418.53;4946035;28;20043;-73
2022/10/24 13:00:38;;;;;;;56.08;19.60;;;;;;;26.75;50.09;98413.50;4937142;28;20145;-72
2022/10/24 13:03:36;;;;;;;56.58;20.23;;;;;;;26.68;50.32;98419.53;4937765;28;21677;-73
2022/10/24 13:06:21;;;;;;;47.60;20.60;;;;;;;26.62;51.34;98431.88;4944910;28;20094;-74